Umiak I — XJAR — position and weather

sailwx.info

Track history (hours):
 
Tides and Currents Weather Stations Pressure Air Temp Water Temp Dewpoint Dewpoint Depression Visibility Wind Speed Wind Dir Waves Ship Positions

Umiak I

Last reported at 2015-Apr-22 17:12 UTC. Time now 2015-May-27 16:00 UTC.
Position N 50°55' W 057°53'.
Warning: this ship's position is 34 days out of date.

Length 188 m; draft 12 m.

Type: Cargo ship. MMSI: 316013340.

Date/timePositionNaut miles runAvg speedWind from/ knotsBaromVisibWave heightAir tempDewpointWater temp
2015-Apr-22 17:12N 50°55' W 057°53'711.3
2015-Apr-22 16:33N 51°00' W 057°45'1110.9
2015-Apr-22 15:33N 51°08' W 057°33'8 8.4
2015-Apr-22 14:33N 51°12' W 057°21'9 9.5
2015-Apr-22 13:33N 51°18' W 057°09'1211.6
2015-Apr-22 12:33N 51°24' W 056°54'  
2015-Apr-13 09:33N 51°25' W 056°40'1111.0
2015-Apr-13 08:33N 51°19' W 056°54'1110.6
2015-Apr-13 07:34N 51°13' W 057°08'1111.2
2015-Apr-13 06:33N 51°07' W 057°23'1111.3
2015-Apr-13 05:33N 50°59' W 057°36'  
Track history (hours):
 
Tides and Currents Weather Stations Pressure Air Temp Water Temp Dewpoint Dewpoint Depression Visibility Wind Speed Wind Dir Waves Ship Positions

Umiak I

Last reported at 2015-Apr-22 17:12 UTC. Time now 2015-May-27 16:00 UTC.
Position N 50°55' W 057°53'.
Warning: this ship's position is 34 days out of date.

Length 188 m; draft 12 m.

Type: Cargo ship. MMSI: 316013340.

Date/timePositionNaut miles runAvg speedWind from/ knotsBaromVisibWave heightAir tempDewpointWater temp
2015-Apr-22 17:12N 50°55' W 057°53'711.3
2015-Apr-22 16:33N 51°00' W 057°45'1110.9
2015-Apr-22 15:33N 51°08' W 057°33'8 8.4
2015-Apr-22 14:33N 51°12' W 057°21'9 9.5
2015-Apr-22 13:33N 51°18' W 057°09'1211.6
2015-Apr-22 12:33N 51°24' W 056°54'  
2015-Apr-13 09:33N 51°25' W 056°40'1111.0
2015-Apr-13 08:33N 51°19' W 056°54'1110.6
2015-Apr-13 07:34N 51°13' W 057°08'1111.2
2015-Apr-13 06:33N 51°07' W 057°23'1111.3
2015-Apr-13 05:33N 50°59' W 057°36'  

Dump ship's entire track history